LYBE/BEG METAR and TAF weather

Enter ICAO airport designator
Station Type Date Time Source
LYBE METAR 2019/03/25 01:00 UTC NOAA

LYBE 250100Z 34003KT CAVOK 08/M06 Q1014 NOSIG


Station Type Date Time Source
LYBE Decoded METAR 2019/03/25 01:00 UTC NOAA

Beograd / Surcin, Serbia and Montenegro (LYBE) 44-49N 020-17E 99M
Mar 24, 2019 - 09:00 PM EDT / 2019.03.25 0100 UTC
Wind: from the NNW (340 degrees) at 3 MPH (3 KT):0
Visibility: greater than 7 mile(s):0
Temperature: 46 F (8 C)
Dew Point: 21 F (-6 C)
Relative Humidity: 36%
Pressure (altimeter): 29.94 in. Hg (1014 hPa)
ob: LYBE 250100Z 34003KT CAVOK 08/M06 Q1014 NOSIG
cycle: 1

Station Type Date Time Source
LYBE TAF 2019/03/24 18:21 UTC NOAA

TAF LYBE 241700Z 2418/2518 18005KT CAVOK TX20/2512Z TN03/2505Z
BECMG 2510/2512 35012KT
TEMPO 2512/2518 02022KT

Example: see airport list